sensor_id;sensor_type;location;lat;lon;timestamp;P1;durP1;ratioP1;P2;durP2;ratioP2
40122;SDS011;25832;45.490;4.912;2022-07-29T00:01:46;4.93;;;2.30;;
40122;SDS011;25832;45.490;4.912;2022-07-29T00:04:11;2.85;;;1.85;;
40122;SDS011;25832;45.490;4.912;2022-07-29T00:06:37;9.35;;;1.88;;
40122;SDS011;25832;45.490;4.912;2022-07-29T00:09:03;2.08;;;1.60;;
40122;SDS011;25832;45.490;4.912;2022-07-29T00:11:28;5.45;;;1.50;;
40122;SDS011;25832;45.490;4.912;2022-07-29T00:13:54;2.10;;;1.50;;
40122;SDS011;25832;45.490;4.912;2022-07-29T00:16:20;3.90;;;2.00;;
40122;SDS011;25832;45.490;4.912;2022-07-29T00:18:45;7.32;;;1.88;;
40122;SDS011;25832;45.490;4.912;2022-07-29T00:21:11;3.03;;;1.80;;
40122;SDS011;25832;45.490;4.912;2022-07-29T00:23:37;2.13;;;1.85;;
40122;SDS011;25832;45.490;4.912;2022-07-29T00:26:03;7.20;;;1.95;;
40122;SDS011;25832;45.490;4.912;2022-07-29T00:28:28;4.07;;;2.03;;
40122;SDS011;25832;45.490;4.912;2022-07-29T00:30:54;2.78;;;1.80;;
40122;SDS011;25832;45.490;4.912;2022-07-29T00:33:20;5.15;;;2.30;;
40122;SDS011;25832;45.490;4.912;2022-07-29T00:35:47;5.43;;;2.20;;
40122;SDS011;25832;45.490;4.912;2022-07-29T00:38:18;2.42;;;1.92;;
40122;SDS011;25832;45.490;4.912;2022-07-29T00:40:46;5.60;;;2.05;;
40122;SDS011;25832;45.490;4.912;2022-07-29T00:43:12;3.72;;;2.58;;
40122;SDS011;25832;45.490;4.912;2022-07-29T00:45:39;2.22;;;1.58;;
40122;SDS011;25832;45.490;4.912;2022-07-29T00:48:06;3.70;;;1.55;;
40122;SDS011;25832;45.490;4.912;2022-07-29T00:50:34;2.63;;;2.00;;
40122;SDS011;25832;45.490;4.912;2022-07-29T00:53:00;1.98;;;1.60;;
40122;SDS011;25832;45.490;4.912;2022-07-29T00:55:27;2.55;;;1.92;;
40122;SDS011;25832;45.490;4.912;2022-07-29T00:57:53;2.28;;;2.03;;
40122;SDS011;25832;45.490;4.912;2022-07-29T01:00:22;4.63;;;2.10;;
40122;SDS011;25832;45.490;4.912;2022-07-29T01:02:49;1.85;;;1.60;;
40122;SDS011;25832;45.490;4.912;2022-07-29T01:05:19;4.22;;;1.65;;
40122;SDS011;25832;45.490;4.912;2022-07-29T01:07:48;2.95;;;1.77;;
40122;SDS011;25832;45.490;4.912;2022-07-29T01:10:16;3.92;;;2.00;;
40122;SDS011;25832;45.490;4.912;2022-07-29T01:12:43;7.15;;;2.40;;
40122;SDS011;25832;45.490;4.912;2022-07-29T01:15:11;6.28;;;2.85;;
40122;SDS011;25832;45.490;4.912;2022-07-29T01:29:03;2.70;;;1.75;;
40122;SDS011;25832;45.490;4.912;2022-07-29T01:31:32;2.38;;;2.08;;
40122;SDS011;25832;45.490;4.912;2022-07-29T01:34:23;4.25;;;2.35;;
40122;SDS011;25832;45.490;4.912;2022-07-29T01:37:05;3.50;;;2.65;;
40122;SDS011;25832;45.490;4.912;2022-07-29T01:39:37;5.38;;;2.13;;
40122;SDS011;25832;45.490;4.912;2022-07-29T01:50:38;3.88;;;2.30;;
40122;SDS011;25832;45.490;4.912;2022-07-29T01:53:11;5.00;;;2.05;;
40122;SDS011;25832;45.490;4.912;2022-07-29T01:55:40;4.28;;;2.28;;
40122;SDS011;25832;45.490;4.912;2022-07-29T01:58:09;2.45;;;1.90;;
40122;SDS011;25832;45.490;4.912;2022-07-29T02:00:37;4.55;;;2.47;;
40122;SDS011;25832;45.490;4.912;2022-07-29T02:03:05;4.82;;;2.17;;
40122;SDS011;25832;45.490;4.912;2022-07-29T02:05:35;4.45;;;2.20;;
40122;SDS011;25832;45.490;4.912;2022-07-29T02:08:04;4.68;;;2.25;;
40122;SDS011;25832;45.490;4.912;2022-07-29T02:10:32;2.50;;;2.17;;
40122;SDS011;25832;45.490;4.912;2022-07-29T02:12:59;6.50;;;2.42;;
40122;SDS011;25832;45.490;4.912;2022-07-29T02:15:29;5.47;;;1.83;;
40122;SDS011;25832;45.490;4.912;2022-07-29T02:18:00;2.95;;;2.10;;
40122;SDS011;25832;45.490;4.912;2022-07-29T02:20:29;3.78;;;1.85;;
40122;SDS011;25832;45.490;4.912;2022-07-29T02:22:57;4.43;;;2.50;;
40122;SDS011;25832;45.490;4.912;2022-07-29T02:25:25;4.15;;;2.63;;
40122;SDS011;25832;45.490;4.912;2022-07-29T02:27:52;3.05;;;2.08;;
40122;SDS011;25832;45.490;4.912;2022-07-29T02:30:19;4.15;;;1.73;;
40122;SDS011;25832;45.490;4.912;2022-07-29T02:32:47;2.85;;;2.55;;
40122;SDS011;25832;45.490;4.912;2022-07-29T02:35:14;3.80;;;2.08;;
40122;SDS011;25832;45.490;4.912;2022-07-29T02:37:42;4.65;;;2.28;;
40122;SDS011;25832;45.490;4.912;2022-07-29T02:40:30;5.15;;;2.10;;
40122;SDS011;25832;45.490;4.912;2022-07-29T02:42:58;3.15;;;2.30;;
40122;SDS011;25832;45.490;4.912;2022-07-29T02:45:25;3.50;;;2.00;;
40122;SDS011;25832;45.490;4.912;2022-07-29T02:47:51;4.03;;;1.88;;
40122;SDS011;25832;45.490;4.912;2022-07-29T02:50:21;3.55;;;2.42;;
40122;SDS011;25832;45.490;4.912;2022-07-29T02:52:58;5.07;;;2.65;;
40122;SDS011;25832;45.490;4.912;2022-07-29T02:58:28;4.55;;;2.20;;
40122;SDS011;25832;45.490;4.912;2022-07-29T03:00:57;7.57;;;2.28;;
40122;SDS011;25832;45.490;4.912;2022-07-29T03:03:27;3.13;;;2.20;;
40122;SDS011;25832;45.490;4.912;2022-07-29T03:05:55;3.38;;;2.45;;
40122;SDS011;25832;45.490;4.912;2022-07-29T03:08:23;2.90;;;2.22;;
40122;SDS011;25832;45.490;4.912;2022-07-29T03:10:49;4.22;;;2.47;;
40122;SDS011;25832;45.490;4.912;2022-07-29T03:13:16;3.45;;;2.35;;
40122;SDS011;25832;45.490;4.912;2022-07-29T03:15:45;2.97;;;2.25;;
40122;SDS011;25832;45.490;4.912;2022-07-29T03:18:12;4.15;;;2.42;;
40122;SDS011;25832;45.490;4.912;2022-07-29T03:20:39;3.78;;;2.63;;
40122;SDS011;25832;45.490;4.912;2022-07-29T03:23:05;3.45;;;2.33;;
40122;SDS011;25832;45.490;4.912;2022-07-29T03:25:31;3.00;;;2.67;;
40122;SDS011;25832;45.490;4.912;2022-07-29T03:27:57;6.55;;;2.65;;
40122;SDS011;25832;45.490;4.912;2022-07-29T03:30:23;4.03;;;2.15;;
40122;SDS011;25832;45.490;4.912;2022-07-29T03:32:49;3.13;;;2.33;;
40122;SDS011;25832;45.490;4.912;2022-07-29T03:35:15;6.35;;;2.35;;
40122;SDS011;25832;45.490;4.912;2022-07-29T03:37:42;6.10;;;2.00;;
40122;SDS011;25832;45.490;4.912;2022-07-29T03:40:08;7.28;;;2.15;;
40122;SDS011;25832;45.490;4.912;2022-07-29T03:42:36;4.55;;;2.22;;
40122;SDS011;25832;45.490;4.912;2022-07-29T03:45:06;5.03;;;2.60;;
40122;SDS011;25832;45.490;4.912;2022-07-29T03:47:35;6.15;;;2.60;;
40122;SDS011;25832;45.490;4.912;2022-07-29T03:50:06;3.60;;;2.60;;
40122;SDS011;25832;45.490;4.912;2022-07-29T03:52:33;5.82;;;2.80;;
40122;SDS011;25832;45.490;4.912;2022-07-29T03:55:00;4.47;;;2.83;;
40122;SDS011;25832;45.490;4.912;2022-07-29T03:57:27;4.30;;;2.85;;
40122;SDS011;25832;45.490;4.912;2022-07-29T03:59:54;3.28;;;1.90;;
40122;SDS011;25832;45.490;4.912;2022-07-29T04:02:21;4.07;;;2.28;;
40122;SDS011;25832;45.490;4.912;2022-07-29T04:04:47;2.65;;;2.15;;
40122;SDS011;25832;45.490;4.912;2022-07-29T04:07:13;3.50;;;2.38;;
40122;SDS011;25832;45.490;4.912;2022-07-29T04:09:40;4.32;;;2.45;;
40122;SDS011;25832;45.490;4.912;2022-07-29T04:12:06;2.85;;;2.35;;
40122;SDS011;25832;45.490;4.912;2022-07-29T04:14:33;3.13;;;1.88;;
40122;SDS011;25832;45.490;4.912;2022-07-29T04:17:02;4.10;;;2.63;;
40122;SDS011;25832;45.490;4.912;2022-07-29T04:19:29;4.07;;;2.58;;
40122;SDS011;25832;45.490;4.912;2022-07-29T04:21:55;5.00;;;3.00;;
40122;SDS011;25832;45.490;4.912;2022-07-29T04:24:21;2.63;;;1.98;;
40122;SDS011;25832;45.490;4.912;2022-07-29T04:26:47;3.38;;;2.05;;
40122;SDS011;25832;45.490;4.912;2022-07-29T04:29:13;3.10;;;2.17;;
40122;SDS011;25832;45.490;4.912;2022-07-29T04:31:39;4.95;;;2.53;;
40122;SDS011;25832;45.490;4.912;2022-07-29T04:34:05;4.05;;;2.00;;
40122;SDS011;25832;45.490;4.912;2022-07-29T04:36:31;3.80;;;2.58;;
40122;SDS011;25832;45.490;4.912;2022-07-29T04:38:57;4.78;;;2.90;;
40122;SDS011;25832;45.490;4.912;2022-07-29T04:41:22;4.80;;;2.35;;
40122;SDS011;25832;45.490;4.912;2022-07-29T04:43:48;3.55;;;2.45;;
40122;SDS011;25832;45.490;4.912;2022-07-29T04:46:14;3.47;;;2.65;;
40122;SDS011;25832;45.490;4.912;2022-07-29T04:48:40;4.07;;;3.05;;
40122;SDS011;25832;45.490;4.912;2022-07-29T04:51:06;4.72;;;3.17;;
40122;SDS011;25832;45.490;4.912;2022-07-29T04:53:31;4.07;;;2.97;;
40122;SDS011;25832;45.490;4.912;2022-07-29T04:55:57;3.85;;;2.60;;
40122;SDS011;25832;45.490;4.912;2022-07-29T04:58:23;6.57;;;3.25;;
40122;SDS011;25832;45.490;4.912;2022-07-29T05:00:49;8.68;;;3.13;;
40122;SDS011;25832;45.490;4.912;2022-07-29T05:03:15;4.95;;;2.75;;
40122;SDS011;25832;45.490;4.912;2022-07-29T05:05:42;5.75;;;2.92;;
40122;SDS011;25832;45.490;4.912;2022-07-29T05:08:08;5.55;;;2.80;;
40122;SDS011;25832;45.490;4.912;2022-07-29T05:10:34;3.20;;;2.75;;
40122;SDS011;25832;45.490;4.912;2022-07-29T05:13:03;4.72;;;2.70;;
40122;SDS011;25832;45.490;4.912;2022-07-29T05:15:30;5.65;;;2.65;;
40122;SDS011;25832;45.490;4.912;2022-07-29T05:17:56;5.22;;;2.80;;
40122;SDS011;25832;45.490;4.912;2022-07-29T05:20:22;3.33;;;2.58;;
40122;SDS011;25832;45.490;4.912;2022-07-29T05:22:53;5.20;;;2.63;;
40122;SDS011;25832;45.490;4.912;2022-07-29T05:25:19;2.95;;;2.30;;
40122;SDS011;25832;45.490;4.912;2022-07-29T05:27:45;4.63;;;3.15;;
40122;SDS011;25832;45.490;4.912;2022-07-29T05:30:11;4.57;;;2.88;;
40122;SDS011;25832;45.490;4.912;2022-07-29T05:32:37;7.10;;;3.58;;
40122;SDS011;25832;45.490;4.912;2022-07-29T05:35:02;2.80;;;2.25;;
40122;SDS011;25832;45.490;4.912;2022-07-29T05:37:28;4.30;;;2.42;;
40122;SDS011;25832;45.490;4.912;2022-07-29T05:39:54;4.80;;;2.65;;
40122;SDS011;25832;45.490;4.912;2022-07-29T05:42:19;6.78;;;2.90;;
40122;SDS011;25832;45.490;4.912;2022-07-29T05:44:45;3.20;;;2.45;;
40122;SDS011;25832;45.490;4.912;2022-07-29T05:47:12;3.85;;;2.90;;
40122;SDS011;25832;45.490;4.912;2022-07-29T05:49:38;4.00;;;3.03;;
40122;SDS011;25832;45.490;4.912;2022-07-29T05:52:04;5.72;;;2.80;;
40122;SDS011;25832;45.490;4.912;2022-07-29T05:54:30;4.43;;;3.15;;
40122;SDS011;25832;45.490;4.912;2022-07-29T05:56:55;11.05;;;3.45;;
40122;SDS011;25832;45.490;4.912;2022-07-29T05:59:21;4.20;;;2.60;;
40122;SDS011;25832;45.490;4.912;2022-07-29T06:01:47;5.10;;;3.00;;
40122;SDS011;25832;45.490;4.912;2022-07-29T06:04:12;5.43;;;2.80;;
40122;SDS011;25832;45.490;4.912;2022-07-29T06:06:38;5.85;;;2.90;;
40122;SDS011;25832;45.490;4.912;2022-07-29T06:09:04;5.40;;;2.78;;
40122;SDS011;25832;45.490;4.912;2022-07-29T06:11:29;3.75;;;2.95;;
40122;SDS011;25832;45.490;4.912;2022-07-29T06:13:55;3.47;;;2.67;;
40122;SDS011;25832;45.490;4.912;2022-07-29T06:16:21;5.10;;;2.42;;
40122;SDS011;25832;45.490;4.912;2022-07-29T06:18:46;2.72;;;2.42;;
40122;SDS011;25832;45.490;4.912;2022-07-29T06:21:12;4.65;;;2.60;;
40122;SDS011;25832;45.490;4.912;2022-07-29T06:23:38;3.95;;;2.42;;
40122;SDS011;25832;45.490;4.912;2022-07-29T06:26:04;6.22;;;2.05;;
40122;SDS011;25832;45.490;4.912;2022-07-29T06:28:30;3.05;;;2.05;;
40122;SDS011;25832;45.490;4.912;2022-07-29T06:30:57;4.47;;;2.80;;
40122;SDS011;25832;45.490;4.912;2022-07-29T06:33:22;3.70;;;2.03;;
40122;SDS011;25832;45.490;4.912;2022-07-29T06:35:48;4.40;;;2.30;;
40122;SDS011;25832;45.490;4.912;2022-07-29T06:38:14;4.82;;;2.90;;
40122;SDS011;25832;45.490;4.912;2022-07-29T06:40:43;4.80;;;2.60;;
40122;SDS011;25832;45.490;4.912;2022-07-29T06:43:25;5.97;;;2.90;;
40122;SDS011;25832;45.490;4.912;2022-07-29T06:45:51;11.20;;;4.25;;
40122;SDS011;25832;45.490;4.912;2022-07-29T06:48:17;5.60;;;2.80;;
40122;SDS011;25832;45.490;4.912;2022-07-29T06:50:43;7.97;;;2.67;;
40122;SDS011;25832;45.490;4.912;2022-07-29T06:53:08;4.35;;;3.38;;
40122;SDS011;25832;45.490;4.912;2022-07-29T06:55:34;5.60;;;3.00;;
40122;SDS011;25832;45.490;4.912;2022-07-29T06:58:02;3.28;;;2.72;;
40122;SDS011;25832;45.490;4.912;2022-07-29T07:00:27;3.97;;;2.90;;
40122;SDS011;25832;45.490;4.912;2022-07-29T07:02:53;6.38;;;3.47;;
40122;SDS011;25832;45.490;4.912;2022-07-29T07:05:18;4.40;;;3.47;;
40122;SDS011;25832;45.490;4.912;2022-07-29T07:07:44;7.22;;;3.35;;
40122;SDS011;25832;45.490;4.912;2022-07-29T07:10:10;3.83;;;2.58;;
40122;SDS011;25832;45.490;4.912;2022-07-29T07:12:35;6.50;;;4.22;;
40122;SDS011;25832;45.490;4.912;2022-07-29T07:15:01;3.10;;;2.40;;
40122;SDS011;25832;45.490;4.912;2022-07-29T07:17:28;8.77;;;2.80;;
40122;SDS011;25832;45.490;4.912;2022-07-29T07:19:53;6.50;;;2.95;;
40122;SDS011;25832;45.490;4.912;2022-07-29T07:22:19;3.78;;;2.58;;
40122;SDS011;25832;45.490;4.912;2022-07-29T07:24:45;10.35;;;4.18;;
40122;SDS011;25832;45.490;4.912;2022-07-29T07:27:10;4.40;;;3.15;;
40122;SDS011;25832;45.490;4.912;2022-07-29T07:29:36;4.90;;;3.55;;
40122;SDS011;25832;45.490;4.912;2022-07-29T07:32:05;6.43;;;3.22;;
40122;SDS011;25832;45.490;4.912;2022-07-29T07:34:32;5.18;;;2.97;;
40122;SDS011;25832;45.490;4.912;2022-07-29T07:36:57;4.07;;;3.08;;
40122;SDS011;25832;45.490;4.912;2022-07-29T07:39:23;4.65;;;3.20;;
40122;SDS011;25832;45.490;4.912;2022-07-29T07:41:51;6.85;;;3.50;;
40122;SDS011;25832;45.490;4.912;2022-07-29T07:44:17;5.78;;;2.75;;
40122;SDS011;25832;45.490;4.912;2022-07-29T07:46:42;5.30;;;2.78;;
40122;SDS011;25832;45.490;4.912;2022-07-29T07:49:10;8.82;;;2.80;;
40122;SDS011;25832;45.490;4.912;2022-07-29T07:51:36;5.00;;;3.20;;
40122;SDS011;25832;45.490;4.912;2022-07-29T07:54:01;4.60;;;3.00;;
40122;SDS011;25832;45.490;4.912;2022-07-29T07:56:27;6.03;;;3.35;;
40122;SDS011;25832;45.490;4.912;2022-07-29T07:58:53;4.90;;;2.53;;
40122;SDS011;25832;45.490;4.912;2022-07-29T08:01:18;7.20;;;2.38;;
40122;SDS011;25832;45.490;4.912;2022-07-29T08:03:47;4.60;;;2.33;;
40122;SDS011;25832;45.490;4.912;2022-07-29T08:06:14;7.97;;;2.70;;
40122;SDS011;25832;45.490;4.912;2022-07-29T08:08:40;5.07;;;2.40;;
40122;SDS011;25832;45.490;4.912;2022-07-29T08:11:05;5.00;;;3.25;;
40122;SDS011;25832;45.490;4.912;2022-07-29T08:13:31;10.93;;;2.13;;
40122;SDS011;25832;45.490;4.912;2022-07-29T08:15:57;4.60;;;2.38;;
40122;SDS011;25832;45.490;4.912;2022-07-29T08:18:35;9.57;;;2.15;;
40122;SDS011;25832;45.490;4.912;2022-07-29T08:21:01;8.00;;;2.70;;
40122;SDS011;25832;45.490;4.912;2022-07-29T08:23:27;4.10;;;2.58;;
40122;SDS011;25832;45.490;4.912;2022-07-29T08:25:59;3.13;;;2.38;;
40122;SDS011;25832;45.490;4.912;2022-07-29T08:28:25;5.07;;;2.42;;
40122;SDS011;25832;45.490;4.912;2022-07-29T08:30:51;6.70;;;2.50;;
40122;SDS011;25832;45.490;4.912;2022-07-29T08:33:17;5.47;;;2.45;;
40122;SDS011;25832;45.490;4.912;2022-07-29T08:35:43;8.18;;;2.67;;
40122;SDS011;25832;45.490;4.912;2022-07-29T08:38:09;5.80;;;2.47;;
40122;SDS011;25832;45.490;4.912;2022-07-29T08:40:34;5.07;;;3.15;;
40122;SDS011;25832;45.490;4.912;2022-07-29T08:43:04;5.10;;;3.10;;
40122;SDS011;25832;45.490;4.912;2022-07-29T08:45:35;6.03;;;3.10;;
40122;SDS011;25832;45.490;4.912;2022-07-29T08:48:17;6.03;;;2.88;;
40122;SDS011;25832;45.490;4.912;2022-07-29T08:50:45;7.75;;;4.43;;
40122;SDS011;25832;45.490;4.912;2022-07-29T08:53:13;10.48;;;4.18;;
40122;SDS011;25832;45.490;4.912;2022-07-29T08:55:42;8.13;;;3.75;;
40122;SDS011;25832;45.490;4.912;2022-07-29T08:58:09;6.88;;;4.38;;
40122;SDS011;25832;45.490;4.912;2022-07-29T09:00:36;6.63;;;4.25;;
40122;SDS011;25832;45.490;4.912;2022-07-29T09:03:06;8.05;;;4.00;;
40122;SDS011;25832;45.490;4.912;2022-07-29T09:05:33;10.85;;;4.57;;
40122;SDS011;25832;45.490;4.912;2022-07-29T09:07:59;7.65;;;4.50;;
40122;SDS011;25832;45.490;4.912;2022-07-29T09:10:26;7.05;;;4.90;;
40122;SDS011;25832;45.490;4.912;2022-07-29T09:12:54;6.88;;;4.82;;
40122;SDS011;25832;45.490;4.912;2022-07-29T09:15:20;6.70;;;3.88;;
40122;SDS011;25832;45.490;4.912;2022-07-29T09:17:47;8.68;;;4.35;;
40122;SDS011;25832;45.490;4.912;2022-07-29T09:20:15;9.35;;;5.47;;
40122;SDS011;25832;45.490;4.912;2022-07-29T09:22:45;8.38;;;4.22;;
40122;SDS011;25832;45.490;4.912;2022-07-29T09:25:14;9.48;;;4.30;;
40122;SDS011;25832;45.490;4.912;2022-07-29T09:28:05;8.57;;;4.40;;
40122;SDS011;25832;45.490;4.912;2022-07-29T09:30:31;5.93;;;4.80;;
40122;SDS011;25832;45.490;4.912;2022-07-29T09:32:58;6.18;;;4.53;;
40122;SDS011;25832;45.490;4.912;2022-07-29T09:35:28;13.40;;;4.88;;
40122;SDS011;25832;45.490;4.912;2022-07-29T09:37:55;7.28;;;5.22;;
40122;SDS011;25832;45.490;4.912;2022-07-29T09:40:27;8.13;;;4.10;;
40122;SDS011;25832;45.490;4.912;2022-07-29T09:42:53;5.15;;;4.25;;
40122;SDS011;25832;45.490;4.912;2022-07-29T09:45:29;5.63;;;3.85;;
40122;SDS011;25832;45.490;4.912;2022-07-29T09:47:56;7.55;;;4.60;;
40122;SDS011;25832;45.490;4.912;2022-07-29T09:50:41;6.00;;;4.18;;
40122;SDS011;25832;45.490;4.912;2022-07-29T09:53:08;7.63;;;4.13;;
40122;SDS011;25832;45.490;4.912;2022-07-29T09:55:47;8.25;;;4.75;;
40122;SDS011;25832;45.490;4.912;2022-07-29T09:58:20;7.63;;;4.22;;
40122;SDS011;25832;45.490;4.912;2022-07-29T10:03:14;6.43;;;4.20;;
40122;SDS011;25832;45.490;4.912;2022-07-29T10:05:41;5.28;;;4.13;;
40122;SDS011;25832;45.490;4.912;2022-07-29T10:08:08;3.72;;;3.38;;
40122;SDS011;25832;45.490;4.912;2022-07-29T10:10:38;7.68;;;4.45;;
40122;SDS011;25832;45.490;4.912;2022-07-29T10:13:06;9.00;;;4.57;;
40122;SDS011;25832;45.490;4.912;2022-07-29T10:15:35;5.68;;;3.65;;
40122;SDS011;25832;45.490;4.912;2022-07-29T10:18:04;9.43;;;4.00;;
40122;SDS011;25832;45.490;4.912;2022-07-29T10:20:31;6.35;;;4.70;;
40122;SDS011;25832;45.490;4.912;2022-07-29T10:22:56;10.45;;;4.18;;
40122;SDS011;25832;45.490;4.912;2022-07-29T10:25:23;7.95;;;3.80;;
40122;SDS011;25832;45.490;4.912;2022-07-29T10:27:50;5.35;;;3.47;;
40122;SDS011;25832;45.490;4.912;2022-07-29T10:30:17;7.20;;;3.47;;
40122;SDS011;25832;45.490;4.912;2022-07-29T10:43:36;6.72;;;3.80;;
40122;SDS011;25832;45.490;4.912;2022-07-29T10:46:07;4.85;;;4.15;;
40122;SDS011;25832;45.490;4.912;2022-07-29T10:48:33;6.43;;;3.45;;
40122;SDS011;25832;45.490;4.912;2022-07-29T10:56:32;3.55;;;3.10;;
40122;SDS011;25832;45.490;4.912;2022-07-29T11:01:45;6.45;;;3.15;;
40122;SDS011;25832;45.490;4.912;2022-07-29T11:07:10;4.63;;;3.60;;
40122;SDS011;25832;45.490;4.912;2022-07-29T11:09:37;5.88;;;2.67;;
40122;SDS011;25832;45.490;4.912;2022-07-29T11:12:03;3.08;;;2.65;;
40122;SDS011;25832;45.490;4.912;2022-07-29T11:15:00;3.22;;;2.50;;
40122;SDS011;25832;45.490;4.912;2022-07-29T11:17:27;3.03;;;2.53;;
40122;SDS011;25832;45.490;4.912;2022-07-29T11:22:56;4.63;;;2.58;;
40122;SDS011;25832;45.490;4.912;2022-07-29T11:25:22;3.53;;;2.53;;
40122;SDS011;25832;45.490;4.912;2022-07-29T11:27:49;4.45;;;2.63;;
40122;SDS011;25832;45.490;4.912;2022-07-29T11:30:16;3.85;;;2.22;;
40122;SDS011;25832;45.490;4.912;2022-07-29T11:32:43;3.20;;;2.17;;
40122;SDS011;25832;45.490;4.912;2022-07-29T11:37:42;3.08;;;2.33;;
40122;SDS011;25832;45.490;4.912;2022-07-29T11:40:09;3.95;;;2.58;;
40122;SDS011;25832;45.490;4.912;2022-07-29T11:42:41;3.90;;;2.40;;
40122;SDS011;25832;45.490;4.912;2022-07-29T11:47:46;3.92;;;2.70;;
40122;SDS011;25832;45.490;4.912;2022-07-29T11:50:16;4.93;;;2.63;;
40122;SDS011;25832;45.490;4.912;2022-07-29T11:52:51;5.07;;;2.40;;
40122;SDS011;25832;45.490;4.912;2022-07-29T11:55:17;3.83;;;2.65;;
40122;SDS011;25832;45.490;4.912;2022-07-29T11:57:52;3.22;;;2.53;;
40122;SDS011;25832;45.490;4.912;2022-07-29T12:00:39;4.97;;;2.38;;
40122;SDS011;25832;45.490;4.912;2022-07-29T12:03:09;2.30;;;2.10;;
40122;SDS011;25832;45.490;4.912;2022-07-29T12:05:42;3.70;;;2.40;;
40122;SDS011;25832;45.490;4.912;2022-07-29T12:08:14;5.35;;;2.40;;
40122;SDS011;25832;45.490;4.912;2022-07-29T12:10:44;3.15;;;2.50;;
40122;SDS011;25832;45.490;4.912;2022-07-29T12:13:12;3.63;;;2.03;;
40122;SDS011;25832;45.490;4.912;2022-07-29T12:15:39;3.67;;;2.00;;
40122;SDS011;25832;45.490;4.912;2022-07-29T12:18:09;2.83;;;2.55;;
40122;SDS011;25832;45.490;4.912;2022-07-29T12:20:36;3.45;;;2.13;;
40122;SDS011;25832;45.490;4.912;2022-07-29T12:23:04;2.78;;;2.42;;
40122;SDS011;25832;45.490;4.912;2022-07-29T12:27:59;2.67;;;1.95;;
40122;SDS011;25832;45.490;4.912;2022-07-29T12:30:33;3.97;;;2.55;;
40122;SDS011;25832;45.490;4.912;2022-07-29T12:33:09;2.40;;;2.10;;
40122;SDS011;25832;45.490;4.912;2022-07-29T12:35:39;5.60;;;2.20;;
40122;SDS011;25832;45.490;4.912;2022-07-29T12:38:06;2.85;;;2.53;;
40122;SDS011;25832;45.490;4.912;2022-07-29T12:40:35;3.90;;;2.20;;
40122;SDS011;25832;45.490;4.912;2022-07-29T12:45:38;2.25;;;2.03;;
40122;SDS011;25832;45.490;4.912;2022-07-29T12:48:06;3.25;;;2.17;;
40122;SDS011;25832;45.490;4.912;2022-07-29T12:50:36;4.22;;;2.20;;
40122;SDS011;25832;45.490;4.912;2022-07-29T12:53:17;4.07;;;2.45;;
40122;SDS011;25832;45.490;4.912;2022-07-29T12:55:45;4.10;;;2.30;;
40122;SDS011;25832;45.490;4.912;2022-07-29T12:58:25;2.50;;;2.30;;
40122;SDS011;25832;45.490;4.912;2022-07-29T13:03:42;3.28;;;2.40;;
40122;SDS011;25832;45.490;4.912;2022-07-29T13:09:23;5.20;;;2.05;;
40122;SDS011;25832;45.490;4.912;2022-07-29T13:12:00;5.47;;;2.40;;
40122;SDS011;25832;45.490;4.912;2022-07-29T13:14:39;4.80;;;2.28;;
40122;SDS011;25832;45.490;4.912;2022-07-29T13:17:15;4.32;;;2.70;;
40122;SDS011;25832;45.490;4.912;2022-07-29T13:22:17;3.88;;;2.30;;
40122;SDS011;25832;45.490;4.912;2022-07-29T13:24:47;3.88;;;2.35;;
40122;SDS011;25832;45.490;4.912;2022-07-29T13:27:18;5.63;;;2.20;;
40122;SDS011;25832;45.490;4.912;2022-07-29T13:29:46;4.20;;;2.25;;
40122;SDS011;25832;45.490;4.912;2022-07-29T13:32:12;5.03;;;2.45;;
40122;SDS011;25832;45.490;4.912;2022-07-29T13:34:38;3.65;;;2.10;;
40122;SDS011;25832;45.490;4.912;2022-07-29T13:37:05;4.30;;;2.58;;
40122;SDS011;25832;45.490;4.912;2022-07-29T13:39:31;2.20;;;1.83;;
40122;SDS011;25832;45.490;4.912;2022-07-29T13:41:57;2.67;;;2.20;;
40122;SDS011;25832;45.490;4.912;2022-07-29T13:44:23;4.50;;;2.28;;
40122;SDS011;25832;45.490;4.912;2022-07-29T13:46:48;2.72;;;2.00;;
40122;SDS011;25832;45.490;4.912;2022-07-29T13:49:14;5.05;;;2.53;;
40122;SDS011;25832;45.490;4.912;2022-07-29T13:51:40;2.90;;;2.00;;
40122;SDS011;25832;45.490;4.912;2022-07-29T13:54:06;3.20;;;2.63;;
40122;SDS011;25832;45.490;4.912;2022-07-29T13:56:31;4.10;;;2.30;;
40122;SDS011;25832;45.490;4.912;2022-07-29T13:58:57;3.55;;;2.55;;
40122;SDS011;25832;45.490;4.912;2022-07-29T14:01:23;3.40;;;2.15;;
40122;SDS011;25832;45.490;4.912;2022-07-29T14:03:49;5.35;;;3.47;;
40122;SDS011;25832;45.490;4.912;2022-07-29T14:06:15;3.08;;;2.58;;
40122;SDS011;25832;45.490;4.912;2022-07-29T14:08:41;2.92;;;2.20;;
40122;SDS011;25832;45.490;4.912;2022-07-29T14:11:06;3.88;;;2.10;;
40122;SDS011;25832;45.490;4.912;2022-07-29T14:13:32;4.60;;;2.38;;
40122;SDS011;25832;45.490;4.912;2022-07-29T14:15:58;3.83;;;2.30;;
40122;SDS011;25832;45.490;4.912;2022-07-29T14:18:23;3.70;;;2.08;;
40122;SDS011;25832;45.490;4.912;2022-07-29T14:20:49;2.67;;;2.08;;
40122;SDS011;25832;45.490;4.912;2022-07-29T14:23:16;3.05;;;1.90;;
40122;SDS011;25832;45.490;4.912;2022-07-29T14:25:42;3.70;;;2.10;;
40122;SDS011;25832;45.490;4.912;2022-07-29T14:28:07;2.20;;;2.00;;
40122;SDS011;25832;45.490;4.912;2022-07-29T14:30:33;4.75;;;2.38;;
40122;SDS011;25832;45.490;4.912;2022-07-29T14:32:59;2.70;;;2.15;;
40122;SDS011;25832;45.490;4.912;2022-07-29T14:35:24;3.45;;;2.33;;
40122;SDS011;25832;45.490;4.912;2022-07-29T14:37:50;2.50;;;1.92;;
40122;SDS011;25832;45.490;4.912;2022-07-29T14:40:15;2.67;;;1.95;;
40122;SDS011;25832;45.490;4.912;2022-07-29T14:42:41;5.40;;;2.17;;
40122;SDS011;25832;45.490;4.912;2022-07-29T14:45:08;2.83;;;2.20;;
40122;SDS011;25832;45.490;4.912;2022-07-29T14:47:34;2.22;;;2.00;;
40122;SDS011;25832;45.490;4.912;2022-07-29T14:50:00;2.80;;;1.95;;
40122;SDS011;25832;45.490;4.912;2022-07-29T14:52:26;4.28;;;2.50;;
40122;SDS011;25832;45.490;4.912;2022-07-29T14:54:52;2.45;;;2.25;;
40122;SDS011;25832;45.490;4.912;2022-07-29T14:57:17;3.05;;;2.40;;
40122;SDS011;25832;45.490;4.912;2022-07-29T14:59:43;3.88;;;2.50;;
40122;SDS011;25832;45.490;4.912;2022-07-29T15:02:09;2.78;;;2.30;;
40122;SDS011;25832;45.490;4.912;2022-07-29T15:04:34;2.60;;;2.08;;
40122;SDS011;25832;45.490;4.912;2022-07-29T15:07:00;3.55;;;2.47;;
40122;SDS011;25832;45.490;4.912;2022-07-29T15:09:26;4.22;;;2.50;;
40122;SDS011;25832;45.490;4.912;2022-07-29T15:11:51;5.85;;;2.30;;
40122;SDS011;25832;45.490;4.912;2022-07-29T15:14:17;4.15;;;2.38;;
40122;SDS011;25832;45.490;4.912;2022-07-29T15:16:43;3.95;;;1.98;;
40122;SDS011;25832;45.490;4.912;2022-07-29T15:19:09;5.80;;;2.45;;
40122;SDS011;25832;45.490;4.912;2022-07-29T15:21:35;3.58;;;2.38;;
40122;SDS011;25832;45.490;4.912;2022-07-29T15:24:01;4.97;;;2.63;;
40122;SDS011;25832;45.490;4.912;2022-07-29T15:26:27;3.83;;;2.25;;
40122;SDS011;25832;45.490;4.912;2022-07-29T15:28:52;2.95;;;1.92;;
40122;SDS011;25832;45.490;4.912;2022-07-29T15:31:20;5.35;;;2.47;;
40122;SDS011;25832;45.490;4.912;2022-07-29T15:33:46;5.97;;;2.97;;
40122;SDS011;25832;45.490;4.912;2022-07-29T15:36:11;4.78;;;2.15;;
40122;SDS011;25832;45.490;4.912;2022-07-29T15:38:37;5.65;;;2.17;;
40122;SDS011;25832;45.490;4.912;2022-07-29T15:41:05;3.13;;;2.30;;
40122;SDS011;25832;45.490;4.912;2022-07-29T15:43:31;4.30;;;2.20;;
40122;SDS011;25832;45.490;4.912;2022-07-29T15:45:59;2.45;;;2.00;;
40122;SDS011;25832;45.490;4.912;2022-07-29T15:48:44;6.82;;;2.55;;
40122;SDS011;25832;45.490;4.912;2022-07-29T15:51:10;3.83;;;2.05;;
40122;SDS011;25832;45.490;4.912;2022-07-29T15:53:35;2.75;;;2.28;;
40122;SDS011;25832;45.490;4.912;2022-07-29T15:56:01;11.82;;;2.33;;
40122;SDS011;25832;45.490;4.912;2022-07-29T15:58:27;3.88;;;2.30;;
40122;SDS011;25832;45.490;4.912;2022-07-29T16:00:53;4.32;;;1.92;;